createdAt,value
2023-05-19T00:01:14.379Z,8.6
2023-05-19T00:04:14.386Z,8.6
2023-05-19T00:07:14.387Z,8.6
2023-05-19T00:10:14.395Z,8.6
2023-05-19T00:13:14.395Z,8.6
2023-05-19T00:16:14.410Z,8.6
2023-05-19T00:19:14.448Z,8.6
2023-05-19T00:22:14.404Z,8.6
2023-05-19T00:25:14.418Z,8.6
2023-05-19T00:28:14.405Z,8.5
2023-05-19T00:31:14.410Z,8.5
2023-05-19T00:34:14.435Z,8.5
2023-05-19T00:37:14.439Z,8.5
2023-05-19T00:40:14.441Z,8.5
2023-05-19T00:43:14.443Z,8.4
2023-05-19T00:46:14.459Z,8.4
2023-05-19T00:49:14.456Z,8.4
2023-05-19T00:52:14.456Z,8.4
2023-05-19T00:55:14.458Z,8.4
2023-05-19T00:58:14.471Z,8.4
2023-05-19T01:01:14.593Z,8.4
2023-05-19T01:04:14.473Z,8.3
2023-05-19T01:07:14.485Z,8.3
2023-05-19T01:10:14.490Z,8.3
2023-05-19T01:13:14.501Z,8.2
2023-05-19T01:16:14.543Z,8.2
2023-05-19T01:19:14.523Z,8.2
2023-05-19T01:22:14.509Z,8.2
2023-05-19T01:25:14.515Z,8.1
2023-05-19T01:28:14.513Z,8.1
2023-05-19T01:31:14.519Z,8.1
2023-05-19T01:34:14.545Z,8.1
2023-05-19T01:37:14.532Z,8.1
2023-05-19T01:40:14.532Z,8.1
2023-05-19T01:43:14.540Z,8.1
2023-05-19T01:46:14.595Z,8.1
2023-05-19T01:49:14.542Z,8.1
2023-05-19T01:52:14.548Z,8.1
2023-05-19T01:55:14.568Z,8.1
2023-05-19T01:58:14.561Z,8
2023-05-19T02:01:14.593Z,8
2023-05-19T02:04:14.611Z,8
2023-05-19T02:07:14.570Z,8
2023-05-19T02:10:14.580Z,8
2023-05-19T02:13:14.591Z,7.9
2023-05-19T02:16:14.609Z,7.9
2023-05-19T02:19:14.647Z,7.9
2023-05-19T02:22:14.595Z,7.9
2023-05-19T02:25:14.599Z,7.8
2023-05-19T02:28:14.606Z,7.8
2023-05-19T02:31:14.606Z,7.8
2023-05-19T02:34:14.610Z,7.8
2023-05-19T02:37:14.625Z,7.8
2023-05-19T02:40:14.626Z,7.8
2023-05-19T02:43:14.625Z,7.8
2023-05-19T02:46:14.654Z,7.7
2023-05-19T02:49:14.657Z,7.7
2023-05-19T02:52:14.633Z,7.7
2023-05-19T02:55:14.641Z,7.7
2023-05-19T02:58:14.656Z,7.7
2023-05-19T03:01:14.657Z,7.6
2023-05-19T03:04:14.650Z,7.7
2023-05-19T03:07:14.662Z,7.6
2023-05-19T03:10:14.658Z,7.6
2023-05-19T03:13:14.673Z,7.6
2023-05-19T03:16:14.718Z,7.6
2023-05-19T03:19:14.694Z,7.6
2023-05-19T03:22:14.694Z,7.6
2023-05-19T03:25:14.687Z,7.6
2023-05-19T03:28:14.685Z,7.6
2023-05-19T03:31:14.696Z,7.5
2023-05-19T03:34:14.718Z,7.5
2023-05-19T03:37:14.703Z,7.5
2023-05-19T03:40:14.722Z,7.5
2023-05-19T03:43:14.720Z,7.5
2023-05-19T03:46:14.752Z,7.6
2023-05-19T03:49:14.738Z,7.6
2023-05-19T03:52:14.747Z,7.6
2023-05-19T03:55:14.806Z,7.6
2023-05-19T03:58:14.755Z,7.6
2023-05-19T04:01:14.759Z,7.6
2023-05-19T04:04:14.754Z,7.7
2023-05-19T04:07:14.770Z,7.7
2023-05-19T04:10:14.771Z,7.7
2023-05-19T04:13:14.777Z,7.7
2023-05-19T04:16:14.844Z,7.6
2023-05-19T04:19:14.811Z,7.6
2023-05-19T04:22:14.786Z,7.6
2023-05-19T04:25:14.798Z,7.6
2023-05-19T04:28:14.788Z,7.6
2023-05-19T04:31:14.863Z,7.6
2023-05-19T04:34:14.810Z,7.5
2023-05-19T04:37:14.804Z,7.5
2023-05-19T04:40:14.806Z,7.5
2023-05-19T04:43:14.817Z,7.5
2023-05-19T04:46:14.822Z,7.6
2023-05-19T04:49:14.830Z,7.6
2023-05-19T04:52:14.836Z,7.6
2023-05-19T04:55:14.839Z,7.7
2023-05-19T04:58:14.830Z,7.7
2023-05-19T05:01:14.850Z,7.8
2023-05-19T05:04:14.872Z,7.9
2023-05-19T05:07:14.852Z,8
2023-05-19T05:10:14.858Z,8.1
2023-05-19T05:13:14.873Z,8.3
2023-05-19T05:16:14.886Z,8.4
2023-05-19T05:19:14.897Z,8.5
2023-05-19T05:22:14.877Z,8.7
2023-05-19T05:25:14.880Z,8.9
2023-05-19T05:28:14.900Z,9.1
2023-05-19T05:31:14.881Z,9.4
2023-05-19T05:34:14.878Z,9.8
2023-05-19T05:37:15.361Z,10.2
2023-05-19T05:40:14.894Z,10.7
2023-05-19T05:43:14.889Z,11.4
2023-05-19T05:46:14.909Z,12.1
2023-05-19T05:49:14.919Z,12.7
2023-05-19T05:52:14.921Z,13.3
2023-05-19T05:55:14.935Z,14
2023-05-19T05:58:14.912Z,14.5
2023-05-19T06:01:15.113Z,14.8
2023-05-19T06:04:14.948Z,15.2
2023-05-19T06:07:14.937Z,15.4
2023-05-19T06:10:14.934Z,15.4
2023-05-19T06:13:14.958Z,15.6
2023-05-19T06:16:14.987Z,15.7
2023-05-19T06:19:14.995Z,15.7
2023-05-19T06:22:14.968Z,15.9
2023-05-19T06:25:14.977Z,16.1
2023-05-19T06:28:14.959Z,16.3
2023-05-19T06:31:15.012Z,16.6
2023-05-19T06:34:14.991Z,16.7
2023-05-19T06:37:14.986Z,16.5
2023-05-19T06:40:14.974Z,16.6
2023-05-19T06:43:15.103Z,16.8
2023-05-19T06:46:15.043Z,17
2023-05-19T06:49:14.991Z,16.9
2023-05-19T06:52:15.002Z,17
2023-05-19T06:55:15.010Z,17.2
2023-05-19T06:58:15.014Z,17.5
2023-05-19T07:01:15.013Z,17.5
2023-05-19T07:04:15.051Z,17.5
2023-05-19T07:07:15.027Z,17.6
2023-05-19T07:10:15.030Z,17.5
2023-05-19T07:13:15.030Z,17.7
2023-05-19T07:16:15.065Z,18.1
2023-05-19T07:19:15.102Z,18.1
2023-05-19T07:22:15.057Z,18.4
2023-05-19T07:25:15.063Z,18.5
2023-05-19T07:28:15.051Z,18.7
2023-05-19T07:31:15.074Z,18.7
2023-05-19T07:34:15.066Z,18.7
2023-05-19T07:37:15.061Z,18.8
2023-05-19T07:40:15.079Z,19.2
2023-05-19T07:43:15.080Z,19.2
2023-05-19T07:46:15.136Z,19.2
2023-05-19T07:49:15.094Z,19.2
2023-05-19T07:52:15.092Z,19.3
2023-05-19T07:55:15.101Z,19.1
2023-05-19T07:58:15.088Z,19.1
2023-05-19T08:01:15.096Z,19.1
2023-05-19T08:04:15.205Z,19.1
2023-05-19T08:07:15.113Z,19.1
2023-05-19T08:10:15.109Z,19.3
2023-05-19T08:13:15.134Z,19.5
2023-05-19T08:16:15.195Z,19.8
2023-05-19T08:19:15.183Z,19.9
2023-05-19T08:22:15.146Z,20.2
2023-05-19T08:25:15.165Z,20.4
2023-05-19T08:28:15.157Z,20.7
2023-05-19T08:31:15.187Z,20.6
2023-05-19T08:34:15.180Z,20.9
2023-05-19T08:37:15.159Z,21.6
2023-05-19T08:40:15.182Z,21.8
2023-05-19T08:43:15.193Z,21.4
2023-05-19T08:46:15.252Z,21.4
2023-05-19T08:49:15.190Z,21.5
2023-05-19T08:52:15.195Z,21.7
2023-05-19T08:55:15.197Z,21.7
2023-05-19T08:58:15.200Z,21.8
2023-05-19T09:01:15.252Z,21.4
2023-05-19T09:04:15.278Z,21.2
2023-05-19T09:07:15.216Z,21.3
2023-05-19T09:10:15.238Z,21.8
2023-05-19T09:13:15.227Z,22
2023-05-19T09:16:15.260Z,22.1
2023-05-19T09:19:15.258Z,22.5
2023-05-19T09:22:15.244Z,22.6
2023-05-19T09:25:15.254Z,22.6
2023-05-19T09:28:15.247Z,22.5
2023-05-19T09:31:15.252Z,22.5
2023-05-19T09:34:15.255Z,22.7
2023-05-19T09:37:15.245Z,22.7
2023-05-19T09:40:15.262Z,23
2023-05-19T09:43:15.255Z,22.8
2023-05-19T09:46:15.286Z,22.6
2023-05-19T09:49:15.276Z,22.2
2023-05-19T09:52:15.282Z,22
2023-05-19T09:55:15.268Z,22
2023-05-19T09:58:15.285Z,22.1
2023-05-19T10:01:15.296Z,22.6
2023-05-19T10:04:15.292Z,23.1
2023-05-19T10:07:15.300Z,23.7
2023-05-19T10:10:15.301Z,24
2023-05-19T10:13:15.303Z,23.5
2023-05-19T10:16:15.317Z,22.9
2023-05-19T10:19:15.317Z,23.4
2023-05-19T10:22:15.316Z,23.4
2023-05-19T10:25:15.405Z,23
2023-05-19T10:28:15.337Z,23.3
2023-05-19T10:31:15.328Z,23.2
2023-05-19T10:34:15.335Z,23.4
2023-05-19T10:37:15.339Z,23.4
2023-05-19T10:40:15.377Z,22.7
2023-05-19T10:43:15.354Z,22.4
2023-05-19T10:46:15.374Z,22.8
2023-05-19T10:49:15.359Z,22.7
2023-05-19T10:52:15.356Z,22.2
2023-05-19T10:55:15.365Z,22.3
2023-05-19T10:58:15.370Z,22.3
2023-05-19T11:01:15.485Z,22.2
2023-05-19T11:04:15.438Z,22
2023-05-19T11:07:15.385Z,21.6
2023-05-19T11:10:15.387Z,21
2023-05-19T11:13:15.389Z,20.9
2023-05-19T11:16:15.404Z,21
2023-05-19T11:19:15.440Z,21.1
2023-05-19T11:22:15.402Z,21.5
2023-05-19T11:25:15.413Z,21.3
2023-05-19T11:28:15.418Z,20.9
2023-05-19T11:31:15.414Z,20.6
2023-05-19T11:34:15.411Z,20.6
2023-05-19T11:37:15.423Z,20.9
2023-05-19T11:40:15.429Z,20.9
2023-05-19T11:43:15.429Z,21.4
2023-05-19T11:46:15.462Z,21.5
2023-05-19T11:49:15.440Z,21.4
2023-05-19T11:52:15.457Z,21.1
2023-05-19T11:55:15.453Z,21
2023-05-19T11:58:15.446Z,20.9
2023-05-19T12:01:15.450Z,20.9
2023-05-19T12:04:15.461Z,20.9
2023-05-19T12:07:15.460Z,20.9
2023-05-19T12:10:15.494Z,20.7
2023-05-19T12:13:15.473Z,20.4
2023-05-19T12:16:15.503Z,20.3
2023-05-19T12:19:15.491Z,20.2
2023-05-19T12:22:15.476Z,20.1
2023-05-19T12:25:15.493Z,20.1
2023-05-19T12:28:15.485Z,20.5
2023-05-19T12:31:15.559Z,20.7
2023-05-19T12:34:15.497Z,20.7
2023-05-19T12:37:15.501Z,20.5
2023-05-19T12:40:15.507Z,20.1
2023-05-19T12:43:15.511Z,19.8
2023-05-19T12:46:15.554Z,19.7
2023-05-19T12:49:15.519Z,19.6
2023-05-19T12:52:15.519Z,19.5
2023-05-19T12:55:15.581Z,19.5
2023-05-19T12:58:15.558Z,19.5
2023-05-19T13:01:15.754Z,19.8
2023-05-19T13:04:15.559Z,20.3
2023-05-19T13:07:15.549Z,20.4
2023-05-19T13:10:15.544Z,20.3
2023-05-19T13:13:15.555Z,20.1
2023-05-19T13:16:15.580Z,19.9
2023-05-19T13:19:24.763Z,19.8
2023-05-19T13:22:15.565Z,20
2023-05-19T13:25:15.553Z,20.6
2023-05-19T13:28:15.561Z,21.1
2023-05-19T13:31:15.567Z,21.3
2023-05-19T13:34:15.560Z,21.4
2023-05-19T13:37:15.639Z,21.4
2023-05-19T13:40:15.572Z,21.1
2023-05-19T13:43:15.575Z,20.7
2023-05-19T13:46:15.618Z,20.8
2023-05-19T13:49:15.585Z,21
2023-05-19T13:52:15.592Z,21
2023-05-19T13:55:15.608Z,21.1
2023-05-19T13:58:15.623Z,20.9
2023-05-19T14:01:15.669Z,20.6
2023-05-19T14:04:15.693Z,20.4
2023-05-19T14:07:15.657Z,20.3
2023-05-19T14:10:15.673Z,20.3
2023-05-19T14:13:30.722Z,20.4
2023-05-19T14:16:15.683Z,20.3
2023-05-19T14:19:15.683Z,20.2
2023-05-19T14:22:15.673Z,20.3
2023-05-19T14:25:15.695Z,20.3
2023-05-19T14:28:15.681Z,20.5
2023-05-19T14:31:15.736Z,20.5
2023-05-19T14:34:15.700Z,20.5
2023-05-19T14:37:15.706Z,20.6
2023-05-19T14:40:15.714Z,20.4
2023-05-19T14:43:15.712Z,20.3
2023-05-19T14:46:15.810Z,20.2
2023-05-19T14:49:15.729Z,20.2
2023-05-19T14:52:15.734Z,20.3
2023-05-19T14:55:15.739Z,20.4
2023-05-19T14:58:27.330Z,20.5
2023-05-19T15:01:15.773Z,20.5
2023-05-19T15:04:15.805Z,20.5
2023-05-19T15:07:15.749Z,20.6
2023-05-19T15:10:15.754Z,20.5
2023-05-19T15:13:15.764Z,20.4
2023-05-19T15:16:17.913Z,20.5
2023-05-19T15:19:15.797Z,20.5
2023-05-19T15:22:15.773Z,20.6
2023-05-19T15:25:15.787Z,20.7
2023-05-19T15:28:15.799Z,20.8
2023-05-19T15:31:15.808Z,20.7
2023-05-19T15:34:15.804Z,20.7
2023-05-19T15:37:15.793Z,20.6
2023-05-19T15:40:15.797Z,20.5
2023-05-19T15:43:15.804Z,20.4
2023-05-19T15:46:15.837Z,20.4
2023-05-19T15:49:15.819Z,20.4
2023-05-19T15:52:15.821Z,20.4
2023-05-19T15:55:15.826Z,20.5
2023-05-19T15:58:15.823Z,20.4
2023-05-19T16:01:15.839Z,20.5
2023-05-19T16:04:15.864Z,20.5
2023-05-19T16:07:15.841Z,20.5
2023-05-19T16:10:15.843Z,20.4
2023-05-19T16:13:15.861Z,20.4
2023-05-19T16:16:15.888Z,20.3
2023-05-19T16:19:15.876Z,20.3
2023-05-19T16:22:15.859Z,20.2
2023-05-19T16:25:15.868Z,20.2
2023-05-19T16:28:15.864Z,20.2
2023-05-19T16:31:15.899Z,20.2
2023-05-19T16:34:15.873Z,20.3
2023-05-19T16:37:15.877Z,20.3
2023-05-19T16:40:15.873Z,20.1
2023-05-19T16:43:15.883Z,19.9
2023-05-19T16:46:15.899Z,19.7
2023-05-19T16:49:15.906Z,19.5
2023-05-19T16:52:15.907Z,19.4
2023-05-19T16:55:15.911Z,19.2
2023-05-19T16:58:15.916Z,19.1
2023-05-19T17:01:15.959Z,19.1
2023-05-19T17:04:15.936Z,19.1
2023-05-19T17:07:15.987Z,19.2
2023-05-19T17:10:15.933Z,19.4
2023-05-19T17:13:15.955Z,19.6
2023-05-19T17:16:16.026Z,19.7
2023-05-19T17:19:15.971Z,19.7
2023-05-19T17:22:15.949Z,19.7
2023-05-19T17:25:15.959Z,19.7
2023-05-19T17:28:15.957Z,19.8
2023-05-19T17:31:15.993Z,20
2023-05-19T17:34:15.974Z,20
2023-05-19T17:37:15.966Z,20.1
2023-05-19T17:40:15.983Z,20.1
2023-05-19T17:43:15.991Z,20
2023-05-19T17:46:16.001Z,19.8
2023-05-19T17:49:15.992Z,19.6
2023-05-19T17:52:15.996Z,19.5
2023-05-19T17:55:16.020Z,19.4
2023-05-19T17:58:16.010Z,19.4
2023-05-19T18:01:16.038Z,19.3
2023-05-19T18:04:16.288Z,19
2023-05-19T18:07:16.014Z,18.7
2023-05-19T18:10:16.014Z,18.3
2023-05-19T18:13:16.041Z,18
2023-05-19T18:16:16.041Z,17.8
2023-05-19T18:19:16.089Z,17.6
2023-05-19T18:22:16.034Z,17.4
2023-05-19T18:25:16.038Z,17.3
2023-05-19T18:28:16.054Z,17.1
2023-05-19T18:31:16.064Z,16.9
2023-05-19T18:34:16.056Z,16.8
2023-05-19T18:37:16.061Z,16.6
2023-05-19T18:40:16.071Z,16.5
2023-05-19T18:43:16.073Z,16.4
2023-05-19T18:46:16.142Z,16.3
2023-05-19T18:49:16.087Z,16.2
2023-05-19T18:52:16.087Z,16
2023-05-19T18:55:16.090Z,15.9
2023-05-19T18:58:16.093Z,15.8
2023-05-19T19:01:16.151Z,15.6
2023-05-19T19:04:16.106Z,15.5
2023-05-19T19:07:16.107Z,15.4
2023-05-19T19:10:16.108Z,15.2
2023-05-19T19:13:16.124Z,15.1
2023-05-19T19:16:16.136Z,15.1
2023-05-19T19:19:16.226Z,14.9
2023-05-19T19:22:16.127Z,14.9
2023-05-19T19:25:16.127Z,14.8
2023-05-19T19:28:16.133Z,14.7
2023-05-19T19:31:16.169Z,14.7
2023-05-19T19:34:16.152Z,14.6
2023-05-19T19:37:16.144Z,14.6
2023-05-19T19:40:16.144Z,14.5
2023-05-19T19:43:16.153Z,14.5
2023-05-19T19:46:16.182Z,14.4
2023-05-19T19:49:16.158Z,14.3
2023-05-19T19:52:16.165Z,14.2
2023-05-19T19:55:16.175Z,14.2
2023-05-19T19:58:16.172Z,14.1
2023-05-19T20:01:16.214Z,14
2023-05-19T20:04:16.254Z,13.9
2023-05-19T20:07:16.192Z,13.8
2023-05-19T20:10:16.198Z,13.7
2023-05-19T20:13:16.200Z,13.6
2023-05-19T20:16:16.237Z,13.5
2023-05-19T20:19:16.222Z,13.4
2023-05-19T20:22:16.206Z,13.3
2023-05-19T20:25:16.222Z,13.3
2023-05-19T20:28:16.224Z,13.3
2023-05-19T20:31:16.237Z,13.3
2023-05-19T20:34:16.242Z,13.2
2023-05-19T20:37:16.234Z,13.1
2023-05-19T20:40:16.237Z,13.1
2023-05-19T20:43:16.251Z,13
2023-05-19T20:46:16.288Z,12.9
2023-05-19T20:49:16.257Z,12.9
2023-05-19T20:52:16.269Z,12.8
2023-05-19T20:55:16.292Z,12.7
2023-05-19T20:57:56.276Z,12.7
2023-05-19T21:00:56.311Z,12.6
2023-05-19T21:03:56.285Z,12.6
2023-05-19T21:06:56.348Z,12.6
2023-05-19T21:09:56.289Z,12.5
2023-05-19T21:12:56.290Z,12.4
2023-05-19T21:15:56.297Z,12.4
2023-05-19T21:18:56.333Z,12.3
2023-05-19T21:21:56.297Z,12.3
2023-05-19T21:24:56.318Z,12.3
2023-05-19T21:27:56.316Z,12.3
2023-05-19T21:30:56.345Z,12.2
2023-05-19T21:33:56.324Z,12.2
2023-05-19T21:36:56.350Z,12.1
2023-05-19T21:39:56.333Z,12
2023-05-19T21:42:56.395Z,12
2023-05-19T21:45:56.340Z,11.9
2023-05-19T21:48:56.351Z,11.8
2023-05-19T21:51:56.347Z,11.7
2023-05-19T21:54:56.367Z,11.6
2023-05-19T21:57:56.358Z,11.5
2023-05-19T22:00:56.363Z,11.5
2023-05-19T22:03:56.399Z,11.5
2023-05-19T22:06:56.373Z,11.4
2023-05-19T22:09:56.380Z,11.4
2023-05-19T22:12:56.380Z,11.4
2023-05-19T22:15:56.391Z,11.3
2023-05-19T22:18:56.403Z,11.3
2023-05-19T22:22:05.953Z,11.3
2023-05-19T22:24:56.397Z,11.4
2023-05-19T22:27:56.407Z,11.4
2023-05-19T22:30:56.413Z,11.3
2023-05-19T22:33:56.446Z,11.3
2023-05-19T22:36:56.425Z,11.4
2023-05-19T22:39:56.429Z,11.4
2023-05-19T22:42:56.441Z,11.4
2023-05-19T22:45:56.518Z,11.5
2023-05-19T22:48:56.442Z,11.6
2023-05-19T22:51:56.458Z,11.6
2023-05-19T22:54:56.463Z,11.7
2023-05-19T22:57:56.467Z,11.7
2023-05-19T23:00:56.484Z,11.6
2023-05-19T23:03:56.476Z,11.6
2023-05-19T23:06:56.477Z,11.6
2023-05-19T23:09:56.472Z,11.6
2023-05-19T23:12:56.480Z,11.6
2023-05-19T23:15:56.494Z,11.6
2023-05-19T23:18:56.501Z,11.5
2023-05-19T23:21:56.496Z,11.5
2023-05-19T23:24:56.500Z,11.4
2023-05-19T23:27:56.521Z,11.2
2023-05-19T23:30:56.521Z,11.1
2023-05-19T23:33:56.520Z,11.1
2023-05-19T23:36:56.531Z,11
2023-05-19T23:39:56.543Z,10.9
2023-05-19T23:42:56.549Z,10.9
2023-05-19T23:45:56.581Z,10.8
2023-05-19T23:48:56.557Z,10.6
2023-05-19T23:51:56.555Z,10.6
2023-05-19T23:54:56.566Z,10.6
2023-05-19T23:57:56.565Z,10.5
